Time;durP1;ratioP1;P1;durP2;ratioP2;P2;SDS_P1;SDS_P2;PMS_P1;PMS_P2;Temp;Humidity;BMP_temperature;BMP_pressure;BME280_temperature;BME280_humidity;BME280_pressure;Samples;Min_cycle;Max_cycle;Signal;HPM_P1;HPM_P2
2021/07/08 00:02:08;;;;;;;15.18;9.05;;;16.40;99.90;;;;;;5032212;28;20086;-55
2021/07/08 00:04:36;;;;;;;19.95;9.50;;;16.50;99.90;;;;;;5032309;28;20017;-55
2021/07/08 00:07:02;;;;;;;17.42;9.82;;;16.40;99.90;;;;;;5032214;28;20045;-55
2021/07/08 00:09:28;;;;;;;17.95;9.32;;;16.40;99.90;;;;;;5032278;28;20044;-55
2021/07/08 00:11:53;;;;;;;13.63;8.07;;;16.40;99.90;;;;;;5032026;28;20025;-55
2021/07/08 00:14:19;;;;;;;16.80;9.27;;;16.30;99.90;;;;;;5032001;28;20032;-55
2021/07/08 00:16:45;;;;;;;17.98;9.50;;;16.20;99.90;;;;;;5032122;28;20057;-55
2021/07/08 00:19:10;;;;;;;12.88;8.77;;;16.10;99.90;;;;;;5031672;28;20029;-54
2021/07/08 00:21:37;;;;;;;16.23;8.70;;;16.10;99.90;;;;;;5031773;28;20022;-55
2021/07/08 00:24:03;;;;;;;14.80;9.63;;;16.10;99.90;;;;;;5030676;28;20029;-55
2021/07/08 00:26:28;;;;;;;14.55;9.20;;;15.90;99.90;;;;;;5031648;28;20029;-55
2021/07/08 00:28:54;;;;;;;18.33;9.40;;;15.90;99.90;;;;;;5031556;28;20477;-55
2021/07/08 00:31:20;;;;;;;18.42;9.48;;;16.00;99.90;;;;;;5031682;28;20029;-55
2021/07/08 00:33:46;;;;;;;14.57;9.55;;;16.10;99.90;;;;;;5031293;28;20054;-55
2021/07/08 00:36:12;;;;;;;14.27;9.68;;;16.20;99.90;;;;;;5030208;28;20034;-55
2021/07/08 00:38:38;;;;;;;14.77;9.23;;;16.20;99.90;;;;;;5031409;28;20087;-55
2021/07/08 00:41:04;;;;;;;15.18;9.32;;;16.20;99.90;;;;;;5030233;28;20025;-55
2021/07/08 00:43:31;;;;;;;13.98;9.55;;;16.20;99.90;;;;;;5031726;28;20026;-55
2021/07/08 00:45:58;;;;;;;17.35;9.77;;;16.30;99.90;;;;;;5031514;28;20022;-55
2021/07/08 00:48:24;;;;;;;17.95;9.50;;;16.30;99.90;;;;;;5031546;28;20096;-55
2021/07/08 00:50:50;;;;;;;12.02;9.40;;;16.50;99.90;;;;;;5030203;28;20052;-55
2021/07/08 00:53:18;;;;;;;15.27;8.00;;;16.50;99.90;;;;;;5031326;28;20490;-55
2021/07/08 00:55:47;;;;;;;12.80;8.73;;;16.40;99.90;;;;;;5031129;28;20028;-55
2021/07/08 00:58:17;;;;;;;13.20;8.75;;;16.30;99.90;;;;;;5031148;28;20029;-55
2021/07/08 01:00:43;;;;;;;13.32;9.13;;;16.40;99.90;;;;;;5029753;28;20024;-55
2021/07/08 01:03:10;;;;;;;15.40;9.55;;;16.40;99.90;;;;;;5031179;28;20025;-55
2021/07/08 01:05:38;;;;;;;18.38;9.88;;;16.60;99.90;;;;;;5031651;28;20044;-55
2021/07/08 01:08:05;;;;;;;15.52;10.40;;;16.80;99.90;;;;;;5031214;28;20022;-55
2021/07/08 01:10:31;;;;;;;15.25;10.18;;;16.90;99.90;;;;;;5030898;28;20026;-55
2021/07/08 01:12:56;;;;;;;15.52;9.80;;;16.90;99.90;;;;;;5030992;28;20060;-55
2021/07/08 01:15:23;;;;;;;16.58;9.95;;;17.00;99.90;;;;;;5031144;28;20033;-55
2021/07/08 01:17:50;;;;;;;13.88;9.93;;;16.90;99.90;;;;;;5029727;28;20548;-55
2021/07/08 01:20:20;;;;;;;18.38;10.50;;;16.90;99.90;;;;;;5031032;28;20078;-55
2021/07/08 01:22:48;;;;;;;19.55;10.77;;;16.80;99.90;;;;;;5030927;28;20018;-55
2021/07/08 01:25:15;;;;;;;16.25;11.18;;;16.80;99.90;;;;;;5031211;28;20059;-55
2021/07/08 01:27:41;;;;;;;15.00;11.43;;;16.70;99.90;;;;;;5031178;28;20417;-55
2021/07/08 01:30:09;;;;;;;16.00;11.45;;;16.70;99.90;;;;;;5031049;28;20083;-55
2021/07/08 01:32:35;;;;;;;18.75;11.50;;;16.60;99.90;;;;;;5030656;28;20052;-55
2021/07/08 01:35:04;;;;;;;18.77;11.68;;;16.60;99.90;;;;;;5029599;28;20061;-55
2021/07/08 01:37:30;;;;;;;18.63;11.98;;;16.60;99.90;;;;;;5031007;28;20036;-55
2021/07/08 01:39:58;;;;;;;19.90;12.25;;;16.50;99.90;;;;;;5030706;28;20436;-55
2021/07/08 01:42:24;;;;;;;15.43;12.73;;;16.50;99.90;;;;;;5030899;28;20040;-55
2021/07/08 01:44:50;;;;;;;20.40;11.55;;;16.40;99.90;;;;;;5032488;28;20045;-55
2021/07/08 01:47:15;;;;;;;19.73;12.68;;;16.40;99.90;;;;;;5034657;28;20060;-55
2021/07/08 01:49:41;;;;;;;19.70;11.88;;;16.30;99.90;;;;;;5034554;28;20030;-55
2021/07/08 01:52:07;;;;;;;17.88;11.50;;;16.30;99.90;;;;;;5033292;28;20056;-55
2021/07/08 01:54:33;;;;;;;19.98;12.23;;;16.30;99.90;;;;;;5034814;28;20025;-56
2021/07/08 01:56:58;;;;;;;20.20;11.63;;;16.30;99.90;;;;;;5034470;28;20052;-55
2021/07/08 01:59:24;;;;;;;20.42;12.88;;;16.40;99.90;;;;;;5034273;28;20121;-55
2021/07/08 02:01:49;;;;;;;20.23;11.85;;;16.50;99.90;;;;;;5034775;28;20025;-55
2021/07/08 02:04:15;;;;;;;17.27;11.57;;;16.50;99.90;;;;;;5034431;28;20025;-55
2021/07/08 02:06:41;;;;;;;18.90;11.90;;;16.60;99.90;;;;;;5034201;28;20076;-55
2021/07/08 02:09:06;;;;;;;20.20;12.18;;;16.60;99.90;;;;;;5034265;28;20113;-55
2021/07/08 02:11:32;;;;;;;16.45;11.43;;;16.80;99.90;;;;;;5034247;28;20033;-55
2021/07/08 02:13:58;;;;;;;20.63;12.00;;;16.70;99.90;;;;;;5034211;28;20628;-55
2021/07/08 02:16:23;;;;;;;20.27;12.13;;;16.90;99.90;;;;;;5034006;28;20029;-55
2021/07/08 02:18:50;;;;;;;20.25;11.57;;;17.00;99.90;;;;;;5033923;28;20029;-55
2021/07/08 02:21:16;;;;;;;18.13;11.70;;;17.00;99.90;;;;;;5033883;28;20037;-55
2021/07/08 02:23:42;;;;;;;17.75;11.23;;;16.90;99.90;;;;;;5034037;28;20022;-55
2021/07/08 02:26:08;;;;;;;16.58;11.80;;;16.80;99.90;;;;;;5033780;28;20029;-55
2021/07/08 02:28:34;;;;;;;20.88;12.07;;;16.90;99.90;;;;;;5033694;28;20493;-55
2021/07/08 02:31:00;;;;;;;19.70;11.65;;;17.00;99.90;;;;;;5033942;28;20037;-55
2021/07/08 02:33:26;;;;;;;20.35;12.30;;;17.00;99.90;;;;;;5033564;28;20053;-56
2021/07/08 02:35:52;;;;;;;18.25;12.13;;;17.00;99.90;;;;;;5033593;28;20025;-56
2021/07/08 02:38:18;;;;;;;20.17;11.98;;;16.90;99.90;;;;;;5033702;28;20084;-55
2021/07/08 02:40:44;;;;;;;21.75;11.07;;;16.70;99.90;;;;;;5033707;28;20014;-55
2021/07/08 02:43:10;;;;;;;20.27;12.38;;;16.70;99.90;;;;;;5033616;28;20029;-55
2021/07/08 02:45:38;;;;;;;18.83;12.20;;;16.80;99.90;;;;;;5033839;28;20032;-55
2021/07/08 02:48:06;;;;;;;21.52;11.38;;;16.90;99.90;;;;;;5033388;28;20116;-56
2021/07/08 02:50:32;;;;;;;21.50;12.32;;;17.00;99.90;;;;;;5033420;28;20032;-55
2021/07/08 02:52:59;;;;;;;21.08;12.77;;;17.30;99.90;;;;;;5033477;28;20026;-55
2021/07/08 02:55:24;;;;;;;24.90;13.15;;;17.50;99.90;;;;;;5032953;28;20044;-55
2021/07/08 02:57:50;;;;;;;19.98;12.52;;;17.50;99.90;;;;;;5032594;28;20033;-55
2021/07/08 03:00:22;;;;;;;19.83;12.60;;;17.40;99.90;;;;;;5033245;28;20025;-55
2021/07/08 03:02:48;;;;;;;19.83;12.20;;;17.20;99.90;;;;;;5031881;28;20386;-55
2021/07/08 03:05:14;;;;;;;20.52;12.60;;;17.10;99.90;;;;;;5033207;28;20030;-55
2021/07/08 03:07:40;;;;;;;21.77;12.02;;;16.90;99.90;;;;;;5033007;28;20033;-55
2021/07/08 03:10:09;;;;;;;19.27;12.80;;;16.70;99.90;;;;;;5033261;28;20071;-55
2021/07/08 03:12:35;;;;;;;20.15;12.65;;;16.70;99.90;;;;;;5031578;28;20061;-55
2021/07/08 03:15:01;;;;;;;16.60;12.32;;;16.50;99.90;;;;;;5033138;28;20033;-55
2021/07/08 03:17:27;;;;;;;21.80;13.65;;;16.50;99.90;;;;;;5031566;28;20040;-55
2021/07/08 03:19:52;;;;;;;20.58;13.10;;;16.60;99.90;;;;;;5032914;28;20495;-55
2021/07/08 03:22:18;;;;;;;21.48;13.68;;;16.60;99.90;;;;;;5032875;28;20091;-55
2021/07/08 03:24:44;;;;;;;22.83;13.32;;;16.60;99.90;;;;;;5032904;28;20032;-55
2021/07/08 03:27:09;;;;;;;22.42;13.55;;;16.50;99.90;;;;;;5032631;28;20033;-55
2021/07/08 03:29:35;;;;;;;19.77;13.30;;;16.50;99.90;;;;;;5032759;28;20045;-55
2021/07/08 03:32:01;;;;;;;24.02;13.57;;;16.70;99.90;;;;;;5032582;28;20036;-55
2021/07/08 03:34:26;;;;;;;19.33;13.38;;;16.90;99.90;;;;;;5032581;28;20064;-55
2021/07/08 03:36:52;;;;;;;23.70;13.48;;;16.70;99.90;;;;;;5032513;28;20064;-55
2021/07/08 03:39:17;;;;;;;19.48;13.15;;;16.60;99.90;;;;;;5032588;28;20039;-55
2021/07/08 03:41:44;;;;;;;18.50;13.20;;;16.40;99.90;;;;;;5032650;28;20482;-55
2021/07/08 03:44:10;;;;;;;20.98;13.05;;;16.20;99.90;;;;;;5031324;28;20112;-55
2021/07/08 03:46:36;;;;;;;19.00;13.07;;;16.00;99.90;;;;;;5032538;28;20021;-55
2021/07/08 03:49:02;;;;;;;21.58;12.57;;;15.90;99.90;;;;;;5032516;28;20025;-55
2021/07/08 03:51:28;;;;;;;26.20;13.63;;;15.80;99.90;;;;;;5032400;28;20021;-55
2021/07/08 03:53:53;;;;;;;19.52;13.25;;;15.60;99.90;;;;;;5032472;28;20026;-55
2021/07/08 03:56:19;;;;;;;25.48;13.75;;;15.50;99.90;;;;;;5032587;28;20029;-55
2021/07/08 03:58:45;;;;;;;20.15;13.93;;;15.40;99.90;;;;;;5032058;28;20061;-55
2021/07/08 04:01:10;;;;;;;24.90;13.73;;;15.40;99.90;;;;;;5032016;28;20060;-55
2021/07/08 04:03:36;;;;;;;26.58;14.65;;;15.50;99.90;;;;;;5032160;28;20045;-55
2021/07/08 04:06:02;;;;;;;27.05;13.60;;;15.60;99.90;;;;;;5031914;28;20036;-55
2021/07/08 04:08:28;;;;;;;24.60;14.30;;;15.60;99.90;;;;;;5031620;28;20064;-55
2021/07/08 04:10:53;;;;;;;24.23;14.82;;;15.70;99.90;;;;;;5031954;28;20049;-55
2021/07/08 04:13:21;;;;;;;24.00;14.90;;;15.70;99.90;;;;;;5032225;28;20474;-55
2021/07/08 04:15:48;;;;;;;25.67;14.35;;;15.80;99.90;;;;;;5031821;28;20021;-55
2021/07/08 04:18:15;;;;;;;18.00;13.18;;;15.90;99.90;;;;;;5031845;28;20542;-56
2021/07/08 04:20:41;;;;;;;19.88;13.25;;;15.90;99.90;;;;;;5031787;28;20108;-55
2021/07/08 04:23:08;;;;;;;19.23;12.38;;;15.70;99.90;;;;;;5031932;28;20475;-55
2021/07/08 04:25:34;;;;;;;20.95;12.68;;;15.50;99.90;;;;;;5031646;28;20061;-55
2021/07/08 04:28:01;;;;;;;19.05;13.20;;;15.50;99.90;;;;;;5031664;28;20470;-55
2021/07/08 04:30:27;;;;;;;21.08;12.68;;;15.50;99.90;;;;;;5031545;28;20035;-55
2021/07/08 04:32:54;;;;;;;23.30;12.70;;;15.60;99.90;;;;;;5031520;28;20056;-55
2021/07/08 04:35:30;;;;;;;21.98;12.43;;;15.70;99.90;;;;;;5031344;28;20463;-55
2021/07/08 04:37:56;;;;;;;24.88;12.32;;;15.70;99.90;;;;;;5031423;28;20030;-56
2021/07/08 04:40:22;;;;;;;22.63;12.95;;;15.60;99.90;;;;;;5031576;28;20534;-56
2021/07/08 04:42:49;;;;;;;19.95;13.10;;;15.60;99.90;;;;;;5031446;28;20177;-55
2021/07/08 04:45:16;;;;;;;19.13;12.68;;;15.60;99.90;;;;;;5031695;28;20041;-55
2021/07/08 04:47:43;;;;;;;21.50;12.10;;;15.70;99.90;;;;;;5031895;28;20029;-55
2021/07/08 04:50:15;;;;;;;16.88;11.52;;;15.70;99.90;;;;;;5031481;28;20029;-55
2021/07/08 04:52:41;;;;;;;20.23;13.45;;;15.70;99.90;;;;;;5031297;28;20104;-55
2021/07/08 04:55:08;;;;;;;15.65;11.70;;;15.70;99.90;;;;;;5031483;28;20175;-55
2021/07/08 04:57:34;;;;;;;21.05;13.32;;;15.60;99.90;;;;;;5030953;28;20123;-55
2021/07/08 05:00:00;;;;;;;20.75;13.65;;;15.70;99.90;;;;;;5031086;28;20109;-55
2021/07/08 05:02:26;;;;;;;24.38;13.98;;;15.80;99.90;;;;;;5031182;28;20025;-55
2021/07/08 05:04:51;;;;;;;22.20;13.40;;;16.00;99.90;;;;;;5029905;28;20048;-55
2021/07/08 05:07:17;;;;;;;22.08;12.80;;;15.90;99.90;;;;;;5031071;28;20061;-55
2021/07/08 05:09:43;;;;;;;18.00;12.50;;;15.80;99.90;;;;;;5029936;28;20021;-55
2021/07/08 05:12:09;;;;;;;29.17;13.23;;;15.60;99.90;;;;;;5031437;28;20063;-55
2021/07/08 05:14:35;;;;;;;21.02;12.43;;;15.60;99.90;;;;;;5029878;28;20032;-55
2021/07/08 05:17:02;;;;;;;21.63;14.00;;;15.60;99.90;;;;;;5031656;28;20017;-55
2021/07/08 05:19:29;;;;;;;22.13;14.32;;;15.60;99.90;;;;;;5030559;28;20021;-55
2021/07/08 05:21:55;;;;;;;20.02;13.07;;;15.60;99.90;;;;;;5035150;28;20493;-55
2021/07/08 05:24:23;;;;;;;21.02;13.32;;;15.70;99.90;;;;;;5034986;28;20107;-56
2021/07/08 05:26:50;;;;;;;21.85;14.30;;;15.80;99.90;;;;;;5034974;28;20036;-55
2021/07/08 05:29:16;;;;;;;22.42;14.20;;;15.90;99.90;;;;;;5033776;28;20025;-56
2021/07/08 05:31:42;;;;;;;21.58;13.93;;;15.90;99.90;;;;;;5034887;28;20053;-55
2021/07/08 05:34:08;;;;;;;22.50;14.05;;;15.80;99.90;;;;;;5034847;28;20128;-55
2021/07/08 05:36:34;;;;;;;23.15;16.00;;;15.80;99.90;;;;;;5035035;28;20040;-55
2021/07/08 05:39:00;;;;;;;25.60;14.95;;;15.80;99.90;;;;;;5033524;28;20555;-55
2021/07/08 05:41:25;;;;;;;25.00;14.60;;;15.80;99.90;;;;;;5034722;28;20022;-55
2021/07/08 05:43:51;;;;;;;24.88;14.48;;;15.80;99.90;;;;;;5034730;28;20466;-55
2021/07/08 05:46:17;;;;;;;26.08;14.93;;;15.80;99.90;;;;;;5034759;28;20497;-55
2021/07/08 05:48:43;;;;;;;21.27;14.82;;;15.90;99.90;;;;;;5034898;28;20030;-55
2021/07/08 05:51:08;;;;;;;20.27;15.35;;;15.90;99.90;;;;;;5034812;28;20037;-55
2021/07/08 05:53:34;;;;;;;26.75;15.52;;;16.00;99.90;;;;;;5034875;28;20537;-54
2021/07/08 05:56:00;;;;;;;24.85;15.60;;;16.00;99.90;;;;;;5033210;28;20466;-54
2021/07/08 05:58:26;;;;;;;22.23;15.10;;;16.00;99.90;;;;;;5033228;28;20122;-54
2021/07/08 06:00:52;;;;;;;22.30;14.85;;;16.10;99.90;;;;;;5034431;28;20018;-54
2021/07/08 06:03:17;;;;;;;20.75;14.15;;;16.20;99.90;;;;;;5034610;28;20017;-55
2021/07/08 06:05:44;;;;;;;19.95;14.05;;;16.30;99.90;;;;;;5034399;28;20021;-55
2021/07/08 06:08:09;;;;;;;25.52;13.98;;;16.40;99.90;;;;;;5034438;28;20375;-55
2021/07/08 06:10:35;;;;;;;20.80;13.50;;;16.50;99.90;;;;;;5034210;28;20035;-55
2021/07/08 06:13:01;;;;;;;20.25;12.57;;;16.60;99.90;;;;;;5034198;28;20044;-55
2021/07/08 06:15:28;;;;;;;18.58;12.48;;;16.70;99.90;;;;;;5034253;28;20037;-55
2021/07/08 06:17:53;;;;;;;18.35;12.13;;;16.90;99.90;;;;;;5034054;28;20109;-55
2021/07/08 06:20:19;;;;;;;23.33;12.68;;;17.10;99.90;;;;;;5033998;28;20105;-55
2021/07/08 06:22:45;;;;;;;19.00;12.13;;;17.20;99.90;;;;;;5033968;28;20478;-55
2021/07/08 06:25:14;;;;;;;20.10;11.98;;;17.30;99.90;;;;;;5034074;28;20382;-55
2021/07/08 06:27:40;;;;;;;18.77;10.90;;;17.40;99.90;;;;;;5033997;28;20029;-55
2021/07/08 06:30:07;;;;;;;18.35;11.32;;;17.40;99.90;;;;;;5033788;28;20026;-55
2021/07/08 06:32:33;;;;;;;19.98;11.45;;;17.50;99.90;;;;;;5033905;28;20045;-56
2021/07/08 06:34:58;;;;;;;16.88;11.10;;;17.70;99.90;;;;;;5034097;28;20036;-55
2021/07/08 06:37:25;;;;;;;16.75;10.70;;;17.90;99.90;;;;;;5033580;28;20057;-55
2021/07/08 06:39:53;;;;;;;16.75;11.73;;;17.90;99.90;;;;;;5033573;28;20085;-55
2021/07/08 06:42:18;;;;;;;14.85;10.90;;;18.00;99.90;;;;;;5033707;28;20029;-55
2021/07/08 06:44:44;;;;;;;15.20;10.48;;;18.20;99.90;;;;;;5033607;28;20437;-56
2021/07/08 06:47:14;;;;;;;18.05;10.38;;;18.40;99.90;;;;;;5033615;28;20026;-55
2021/07/08 06:49:40;;;;;;;13.10;9.45;;;18.70;99.90;;;;;;5032201;28;20021;-55
2021/07/08 06:52:06;;;;;;;16.20;9.10;;;19.90;99.90;;;;;;5032304;28;20501;-55
2021/07/08 06:54:32;;;;;;;10.65;7.72;;;21.10;99.90;;;;;;5033545;28;20036;-56
2021/07/08 06:56:58;;;;;;;13.55;7.85;;;22.10;99.90;;;;;;5033434;28;20403;-56
2021/07/08 06:59:24;;;;;;;11.80;7.43;;;23.10;99.90;;;;;;5033440;28;20112;-56
2021/07/08 07:01:50;;;;;;;11.07;6.97;;;24.20;99.90;;;;;;5033896;28;20053;-56
2021/07/08 07:04:16;;;;;;;11.20;6.80;;;25.10;99.90;;;;;;5033739;28;20022;-56
2021/07/08 07:06:42;;;;;;;12.88;6.95;;;25.50;99.90;;;;;;5033601;28;20035;-56
2021/07/08 07:09:07;;;;;;;11.73;6.32;;;26.80;99.90;;;;;;5032606;28;20318;-55
2021/07/08 07:11:33;;;;;;;14.25;6.88;;;27.30;99.90;;;;;;5032975;28;20039;-55
2021/07/08 07:13:59;;;;;;;9.27;6.22;;;27.80;99.00;;;;;;5032794;28;20033;-55
2021/07/08 07:16:24;;;;;;;12.73;6.53;;;27.20;98.10;;;;;;5032460;28;20041;-55
2021/07/08 07:18:50;;;;;;;9.85;5.97;;;26.30;99.50;;;;;;5031909;28;20033;-55
2021/07/08 07:21:16;;;;;;;9.07;6.28;;;26.50;99.80;;;;;;5031510;28;20470;-55
2021/07/08 07:23:42;;;;;;;10.15;5.88;;;26.10;99.90;;;;;;5033112;28;20029;-55
2021/07/08 07:26:08;;;;;;;10.30;5.82;;;26.20;99.90;;;;;;5032753;28;20022;-55
2021/07/08 07:28:34;;;;;;;13.02;6.15;;;26.30;99.90;;;;;;5032293;28;20033;-54
2021/07/08 07:31:00;;;;;;;9.80;6.13;;;26.70;99.10;;;;;;5030955;28;20033;-54
2021/07/08 07:33:25;;;;;;;9.10;5.30;;;27.00;98.30;;;;;;5031904;28;20438;-56
2021/07/08 07:35:51;;;;;;;8.18;5.10;;;27.20;97.90;;;;;;5032688;28;20382;-55
2021/07/08 07:38:18;;;;;;;8.57;5.05;;;27.70;96.70;;;;;;5032238;28;20044;-55
2021/07/08 07:40:44;;;;;;;7.82;5.10;;;27.50;96.40;;;;;;5033343;28;20382;-55
2021/07/08 07:43:10;;;;;;;10.32;4.75;;;27.20;96.40;;;;;;5041197;28;20163;-55
2021/07/08 07:45:37;;;;;;;8.60;4.53;;;26.90;96.70;;;;;;5034409;28;20025;-56
2021/07/08 07:48:03;;;;;;;8.52;4.40;;;27.30;96.80;;;;;;5031895;28;20024;-56
2021/07/08 07:50:32;;;;;;;8.80;5.00;;;27.70;96.00;;;;;;5030237;28;20029;-54
2021/07/08 07:52:58;;;;;;;8.90;5.22;;;27.40;95.50;;;;;;5031395;28;20112;-54
2021/07/08 07:55:27;;;;;;;7.47;4.78;;;27.40;96.30;;;;;;5031524;28;20541;-55
2021/07/08 07:57:57;;;;;;;7.38;3.97;;;27.70;96.00;;;;;;5029981;28;20455;-54
2021/07/08 08:00:23;;;;;;;13.90;4.30;;;28.10;95.10;;;;;;5041316;28;20407;-54
2021/07/08 08:02:49;;;;;;;9.93;3.92;;;27.60;94.30;;;;;;5031508;28;20474;-55
2021/07/08 08:10:28;;;;;;;6.93;3.95;;;27.10;93.70;;;;;;5032384;28;20040;-55
2021/07/08 08:12:54;;;;;;;12.15;4.53;;;27.00;94.10;;;;;;5031933;28;20033;-55
2021/07/08 08:15:20;;;;;;;8.43;4.65;;;26.90;93.60;;;;;;5031451;28;20386;-55
2021/07/08 08:17:47;;;;;;;8.75;4.50;;;26.60;94.70;;;;;;5031095;28;20037;-53
2021/07/08 08:20:14;;;;;;;8.75;4.22;;;26.40;95.50;;;;;;5031606;28;20490;-56
2021/07/08 08:22:41;;;;;;;10.52;5.25;;;25.90;96.20;;;;;;5030396;28;20030;-56
2021/07/08 08:25:09;;;;;;;9.50;4.63;;;25.80;96.70;;;;;;5030214;28;20036;-53
2021/07/08 08:27:36;;;;;;;8.02;4.57;;;27.00;95.70;;;;;;5030036;28;20036;-54
2021/07/08 08:30:02;;;;;;;6.78;3.63;;;27.80;94.00;;;;;;5031071;28;20037;-54
2021/07/08 08:32:28;;;;;;;8.60;3.72;;;29.10;91.80;;;;;;5030956;28;20057;-56
2021/07/08 08:34:54;;;;;;;5.80;3.90;;;29.70;91.00;;;;;;5031634;28;20032;-53
2021/07/08 08:37:19;;;;;;;7.40;4.20;;;29.70;90.10;;;;;;5030682;28;20433;-56
2021/07/08 08:39:45;;;;;;;9.38;3.80;;;30.20;89.60;;;;;;5030535;28;20029;-55
2021/07/08 08:42:10;;;;;;;7.18;3.97;;;30.00;87.20;;;;;;5031806;28;20022;-55
2021/07/08 08:44:36;;;;;;;10.07;4.03;;;30.20;85.90;;;;;;5030314;28;20376;-55
2021/07/08 08:47:06;;;;;;;8.40;3.90;;;30.90;85.00;;;;;;5030155;28;20036;-56
2021/07/08 08:49:31;;;;;;;8.23;3.70;;;32.00;80.30;;;;;;5030743;28;20037;-55
2021/07/08 08:51:58;;;;;;;5.82;3.28;;;32.00;77.90;;;;;;5029961;28;20033;-55
2021/07/08 08:54:24;;;;;;;6.05;3.13;;;32.00;76.40;;;;;;5030065;28;20102;-54
2021/07/08 08:56:50;;;;;;;4.03;2.65;;;31.90;74.50;;;;;;5030875;28;20182;-54
2021/07/08 08:59:15;;;;;;;7.93;3.20;;;31.60;73.60;;;;;;5030420;28;20065;-54
2021/07/08 09:01:41;;;;;;;5.43;3.53;;;32.20;71.80;;;;;;5030283;28;20497;-55
2021/07/08 09:04:34;;;;;;;6.88;3.63;;;31.60;72.60;;;;;;5029774;28;20033;-55
2021/07/08 09:07:19;;;;;;;9.77;3.33;;;31.70;72.30;;;;;;5026484;28;20318;-55
2021/07/08 09:09:44;;;;;;;7.93;3.30;;;31.40;73.40;;;;;;5021315;28;20446;-54
2021/07/08 09:12:14;;;;;;;6.75;3.22;;;31.80;74.20;;;;;;5029616;28;20109;-54
2021/07/08 09:14:40;;;;;;;5.32;3.10;;;31.90;72.40;;;;;;5030367;28;20037;-54
2021/07/08 09:17:20;;;;;;;5.50;3.03;;;30.70;73.70;;;;;;5030941;28;20370;-55
2021/07/08 09:19:47;;;;;;;6.00;2.80;;;30.80;72.40;;;;;;5030426;28;20476;-55
2021/07/08 09:22:29;;;;;;;6.60;2.70;;;31.10;69.20;;;;;;5030119;28;20099;-55
2021/07/08 09:24:55;;;;;;;5.78;3.00;;;32.00;68.00;;;;;;5030775;28;20023;-56
2021/07/08 09:27:27;;;;;;;5.40;2.65;;;31.90;66.10;;;;;;5031026;28;20026;-54
2021/07/08 09:29:53;;;;;;;;;;;29.70;71.90;;;;;;5031118;28;20061;-54
2021/07/08 09:32:22;;;;;;;4.78;2.47;;;28.30;76.10;;;;;;5029505;28;19913;-54
2021/07/08 09:34:52;;;;;;;5.95;2.60;;;27.90;75.10;;;;;;5030666;28;20030;-54
2021/07/08 09:37:29;;;;;;;6.90;2.80;;;27.30;76.20;;;;;;5030994;28;20462;-54
2021/07/08 09:39:57;;;;;;;7.53;3.20;;;26.80;79.60;;;;;;5030431;28;20030;-55
2021/07/08 09:42:45;;;;;;;7.07;3.80;;;26.40;83.90;;;;;;5029928;28;20449;-54
2021/07/08 09:45:11;;;;;;;6.13;3.42;;;25.40;85.40;;;;;;5031221;28;20025;-54
2021/07/08 09:47:40;;;;;;;5.63;3.90;;;25.40;87.30;;;;;;5033278;28;20433;-54
2021/07/08 09:50:07;;;;;;;9.00;4.38;;;25.70;87.50;;;;;;5018139;28;20029;-54
2021/07/08 09:52:33;;;;;;;5.57;3.50;;;26.60;84.60;;;;;;5029694;28;20021;-55
2021/07/08 09:55:33;;;;;;;7.78;3.72;;;27.10;84.00;;;;;;5029289;28;20463;-54
2021/07/08 09:57:50;;;;;;;5.83;3.20;;;27.00;83.80;;;;;;5024472;28;20049;-54
2021/07/08 10:00:19;;;;;;;6.50;3.10;;;27.40;82.90;;;;;;5028887;28;20483;-54
2021/07/08 10:02:49;;;;;;;6.82;3.35;;;27.70;81.40;;;;;;5030147;28;20030;-54
2021/07/08 10:05:17;;;;;;;8.93;4.65;;;29.30;77.80;;;;;;5030258;28;20051;-54
2021/07/08 10:07:43;;;;;;;20.75;11.10;;;31.20;72.90;;;;;;5031627;28;20087;-55
2021/07/08 10:10:10;;;;;;;9.30;3.67;;;31.80;69.60;;;;;;5033614;28;20117;-54
2021/07/08 10:12:39;;;;;;;10.77;5.80;;;31.50;68.90;;;;;;5033474;28;20039;-55
2021/07/08 10:15:10;;;;;;;6.07;3.85;;;30.80;70.00;;;;;;5032856;28;20559;-54
2021/07/08 10:17:38;;;;;;;5.43;2.90;;;30.40;71.70;;;;;;5031701;28;20036;-54
2021/07/08 10:20:09;;;;;;;5.75;3.33;;;30.50;70.60;;;;;;5033285;28;20072;-54
2021/07/08 10:22:36;;;;;;;4.10;2.50;;;29.60;73.00;;;;;;5033540;28;20029;-54
2021/07/08 10:25:03;;;;;;;4.93;2.42;;;28.30;75.50;;;;;;5034293;28;20136;-54
2021/07/08 10:27:30;;;;;;;3.83;2.30;;;27.20;76.30;;;;;;5037206;28;20029;-54
2021/07/08 10:29:58;;;;;;;5.65;2.60;;;25.90;79.60;;;;;;5034141;28;20032;-54
2021/07/08 10:32:26;;;;;;;7.03;3.40;;;25.00;83.30;;;;;;5033029;28;20046;-55
2021/07/08 10:34:52;;;;;;;6.82;3.30;;;24.60;86.20;;;;;;5029314;28;20034;-55
2021/07/08 10:37:37;;;;;;;7.30;3.47;;;24.90;86.70;;;;;;5029426;28;20022;-54
2021/07/08 10:40:04;;;;;;;9.45;3.10;;;24.90;87.30;;;;;;5032979;28;20482;-54
2021/07/08 10:42:45;;;;;;;11.98;5.50;;;24.80;87.40;;;;;;5031690;28;20482;-54
2021/07/08 10:45:23;;;;;;;15.20;5.45;;;24.70;89.80;;;;;;5033925;28;20047;-55
2021/07/08 10:47:50;;;;;;;14.30;5.82;;;24.70;90.80;;;;;;5032894;28;20029;-54
2021/07/08 10:50:37;;;;;;;10.52;4.57;;;24.60;91.30;;;;;;5033085;28;20026;-54
2021/07/08 10:53:24;;;;;;;7.45;3.70;;;24.40;91.80;;;;;;5030574;28;20035;-54
2021/07/08 10:55:53;;;;;;;9.43;4.50;;;24.40;92.60;;;;;;5030072;28;20076;-54
2021/07/08 10:58:37;;;;;;;8.45;4.18;;;24.20;92.20;;;;;;5032053;28;20387;-54
2021/07/08 11:01:04;;;;;;;5.90;3.60;;;24.20;92.50;;;;;;5032330;28;20492;-53
2021/07/08 11:03:43;;;;;;;5.88;3.60;;;24.20;92.80;;;;;;5030864;28;20041;-54
2021/07/08 11:06:24;;;;;;;9.43;3.90;;;24.20;93.20;;;;;;5032049;28;20104;-54
2021/07/08 11:08:59;;;;;;;11.18;4.65;;;24.20;93.10;;;;;;5037206;28;20036;-54
2021/07/08 11:11:24;;;;;;;7.25;4.10;;;24.20;93.60;;;;;;5032378;28;20025;-55
2021/07/08 11:13:54;;;;;;;5.60;3.95;;;23.80;94.70;;;;;;5033392;28;20021;-55
2021/07/08 11:16:43;;;;;;;7.82;4.28;;;23.90;94.50;;;;;;5033514;28;20041;-55
2021/07/08 11:19:13;;;;;;;8.15;4.18;;;24.10;94.50;;;;;;5032987;28;20033;-55
2021/07/08 11:21:55;;;;;;;7.25;3.90;;;24.30;94.10;;;;;;5033180;28;20060;-55
2021/07/08 11:24:30;;;;;;;15.50;4.88;;;24.40;94.20;;;;;;5033723;28;20033;-55
2021/07/08 11:27:02;;;;;;;11.15;4.43;;;25.10;94.70;;;;;;5033543;28;20576;-53
2021/07/08 11:29:46;;;;;;;9.52;4.18;;;26.20;92.40;;;;;;5032286;28;20052;-55
2021/07/08 11:32:34;;;;;;;7.65;3.67;;;26.40;90.70;;;;;;5031175;28;20117;-55
2021/07/08 11:35:05;;;;;;;7.90;4.38;;;26.10;90.60;;;;;;5025443;28;20041;-54
2021/07/08 11:37:39;;;;;;;8.48;3.90;;;25.40;91.50;;;;;;5031901;28;20037;-55
2021/07/08 11:40:08;;;;;;;6.35;3.78;;;25.40;92.10;;;;;;5031876;28;20097;-54
2021/07/08 11:42:37;;;;;;;4.45;2.95;;;25.00;92.80;;;;;;5032692;28;20053;-55
2021/07/08 11:45:18;;;;;;;3.50;2.85;;;25.60;91.30;;;;;;5033104;28;20033;-55
2021/07/08 11:47:52;;;;;;;6.47;2.90;;;27.30;87.60;;;;;;5033670;28;20063;-54
2021/07/08 11:50:27;;;;;;;5.88;2.78;;;28.10;82.60;;;;;;5032611;28;20037;-55
2021/07/08 11:53:14;;;;;;;5.35;2.67;;;28.70;79.80;;;;;;5030820;28;20021;-55
2021/07/08 11:55:44;;;;;;;3.63;2.20;;;29.10;77.50;;;;;;5020837;28;20034;-56
2021/07/08 11:58:11;;;;;;;3.72;2.13;;;27.90;80.00;;;;;;5033084;28;20665;-54
2021/07/08 12:00:48;;;;;;;4.03;1.90;;;27.00;81.40;;;;;;5032268;28;20034;-55
2021/07/08 12:03:32;;;;;;;4.22;2.60;;;25.80;80.30;;;;;;5031424;28;20029;-54
2021/07/08 12:06:01;;;;;;;4.45;2.30;;;25.40;84.20;;;;;;5032923;28;20022;-54
2021/07/08 12:08:32;;;;;;;5.88;2.45;;;25.30;84.70;;;;;;5032173;28;20041;-54
2021/07/08 12:11:14;;;;;;;3.30;2.08;;;25.60;84.10;;;;;;5032889;28;20030;-54
2021/07/08 12:13:53;;;;;;;6.95;2.20;;;26.30;85.60;;;;;;5031941;28;20033;-55
2021/07/08 12:16:28;;;;;;;6.05;2.47;;;27.30;83.70;;;;;;5032052;28;20485;-54
2021/07/08 12:18:54;;;;;;;6.43;2.58;;;28.10;79.30;;;;;;5032042;28;20351;-54
2021/07/08 12:21:22;;;;;;;3.70;1.98;;;27.30;80.30;;;;;;5032270;28;20038;-54
2021/07/08 12:23:49;;;;;;;4.50;2.20;;;26.80;79.30;;;;;;5034229;28;20032;-54
2021/07/08 12:26:32;;;;;;;3.15;2.30;;;27.20;78.50;;;;;;5031442;28;20100;-55
2021/07/08 12:29:25;;;;;;;6.90;2.30;;;27.30;78.60;;;;;;5032141;28;20037;-54
2021/07/08 12:31:56;;;;;;;4.75;1.95;;;28.20;77.10;;;;;;5031687;28;20045;-55
2021/07/08 12:34:33;;;;;;;4.72;1.67;;;29.60;73.50;;;;;;5031642;28;20045;-55
2021/07/08 12:37:37;;;;;;;4.25;2.00;;;29.60;72.20;;;;;;5028023;28;20021;-53
2021/07/08 12:40:14;;;;;;;3.33;1.90;;;30.60;68.80;;;;;;5008697;28;20042;-55
2021/07/08 12:42:49;;;;;;;4.03;2.00;;;29.80;68.70;;;;;;5011725;28;20505;-54
2021/07/08 12:45:16;;;;;;;3.85;2.00;;;28.90;69.00;;;;;;5010611;28;20037;-53
2021/07/08 12:47:47;;;;;;;5.72;1.98;;;28.80;71.10;;;;;;5010625;28;20334;-55